Avioradar koristi kolačiće da bi Vam omogućio jednostavnije i ugodnije korištenje stranice. 

AVIORADAR - Hrvatski zrakoplovni portal

Poremećaj 23.veljače 2019. na zračnim lukama na Jadranu

Jan Kotek.

Iberia Airbus A319

Od jučerašnjeg večera, petka 22. veljače, na Jadranu puše iznimno jaka bura, koja je prouzročila poremećaj u zračnom prometu na hrvatskim zračnim lukama.

Zračna luka Dubrovnik:

METAR LDDU 231400Z 03044G60KT CAVOK 04/M15 Q1020 BECMG 03030G45KT

22.02. 20:30 A34823 KOBENHAVN - preusmjeren u Split (SPU)
22.02. 22:05 OU664 ZAGREB - preusmjeren u Split (SPU)

23.02. 11:25 A34811 STUTTGART - preusmjeren u Split (SPU)
23.02. 12:30 OU668 ZAGREB - otkazan
23.02. 14:55 IB3154 MADRID - preusmjeren u Split (SPU)
23.02. 15:45 OU662 ZAGREB - preusmjeren u Split (SPU)
23.02. 18:10 LO595 WARSAW - otkazan
23.02. 19:25 TK439 ISTANBUL - otkazan
23.02. 19:40 A34825 BRUXELLES - preusmjeren u Split (SPU)

Zračna luka Split:

23.02. 06:50 OU650 ZAGREB - otkazan

Zračna luka Zadar:

22.02. 06:35 OU631 PULA - preusmjeren u Zagreb (ZAG)
22.02. 21:55 OU632 ZAGREB - preusmjeren u Split (SPU)
23.02. 06:35 OU631 PULA - preusmjeren u Zagreb (ZAG)

Foto © Avioradar (DBV/02.2019)